Amador City, California
Current Conditions -  °F | °C
As of 7:55 PM on Wednesday 22 Oct 2014 (Local Time) from KPVF Reporting Station
Clear Clear  
Wind Chill: 59°   Ceiling: Unl
Heat Index: 59°   Visibility: 10mi
Dew Point: 36°   Wind: 0mph
Humidity: 42%   Direction: NA
Pressure: 30.11"   Gusts: NA
Location:  38.42°N, 120.82°W
Report Text: KPVF 230255Z AUTO 00000KT 10SM CLR 15/02 A3011 RMK AO1
Loading
Personal Weather Stations






























Interactive Weather Map New forecast layout! Learn more

10-Day Weather Forecast

Advertisements
Track Severe Weather on mobile